createdAt,value
2023-02-13T00:01:21.932Z,118.00
2023-02-13T00:03:49.245Z,125.13
2023-02-13T00:06:17.422Z,131.20
2023-02-13T00:08:45.898Z,128.75
2023-02-13T00:11:15.777Z,118.53
2023-02-13T00:13:47.879Z,135.90
2023-02-13T00:16:14.969Z,129.18
2023-02-13T00:18:51.420Z,129.60
2023-02-13T00:21:21.451Z,125.97
2023-02-13T00:23:50.670Z,133.15
2023-02-13T00:26:21.547Z,130.93
2023-02-13T00:28:49.010Z,131.85
2023-02-13T00:31:21.311Z,140.48
2023-02-13T00:33:50.573Z,138.43
2023-02-13T00:36:22.324Z,141.82
2023-02-13T00:38:52.286Z,141.35
2023-02-13T00:41:22.252Z,137.23
2023-02-13T00:43:56.585Z,144.45
2023-02-13T00:46:44.605Z,134.90
2023-02-13T00:49:14.041Z,133.65
2023-02-13T00:51:41.461Z,139.77
2023-02-13T00:54:09.515Z,151.57
2023-02-13T00:56:47.821Z,131.98
2023-02-13T00:59:18.648Z,146.93
2023-02-13T01:01:55.668Z,144.65
2023-02-13T01:12:37.966Z,134.27
2023-02-13T01:15:10.702Z,135.40
2023-02-13T01:17:40.362Z,135.73
2023-02-13T01:20:10.866Z,154.75
2023-02-13T01:22:39.106Z,146.27
2023-02-13T01:25:12.594Z,144.25
2023-02-13T01:27:39.739Z,130.15
2023-02-13T01:30:13.666Z,145.27
2023-02-13T01:32:41.612Z,130.05
2023-02-13T01:35:10.336Z,133.65
2023-02-13T01:37:41.133Z,145.18
2023-02-13T01:40:13.803Z,141.57
2023-02-13T01:42:41.297Z,145.40
2023-02-13T01:45:23.982Z,138.80
2023-02-13T01:48:37.961Z,124.95
2023-02-13T01:51:23.991Z,133.50
2023-02-13T01:54:04.693Z,132.45
2023-02-13T01:56:48.185Z,132.13
2023-02-13T01:59:29.829Z,139.60
2023-02-13T02:02:02.750Z,100.72
2023-02-13T02:04:39.653Z,141.25
2023-02-13T02:09:58.794Z,142.35
2023-02-13T02:12:50.078Z,140.85
2023-02-13T02:15:21.490Z,147.13
2023-02-13T02:17:49.817Z,140.00
2023-02-13T02:20:35.481Z,136.90
2023-02-13T02:23:32.890Z,136.65
2023-02-13T02:27:00.654Z,133.15
2023-02-13T02:29:56.666Z,141.48
2023-02-13T02:33:01.525Z,146.05
2023-02-13T02:35:56.092Z,147.60
2023-02-13T02:38:58.390Z,130.57
2023-02-13T02:41:44.857Z,131.07
2023-02-13T02:44:25.013Z,137.50
2023-02-13T02:47:30.241Z,141.88
2023-02-13T02:50:35.032Z,135.95
2023-02-13T02:53:28.390Z,143.02
2023-02-13T02:56:20.584Z,135.15
2023-02-13T02:59:15.894Z,132.73
2023-02-13T03:02:04.233Z,133.55
2023-02-13T03:04:55.051Z,131.20
2023-02-13T03:07:23.677Z,134.95
2023-02-13T03:10:14.810Z,135.32
2023-02-13T03:13:05.343Z,127.95
2023-02-13T03:15:57.241Z,124.72
2023-02-13T03:18:43.220Z,120.30
2023-02-13T03:21:38.597Z,123.50
2023-02-13T03:24:28.188Z,118.35
2023-02-13T03:27:46.954Z,114.30
2023-02-13T03:30:41.024Z,111.55
2023-02-13T03:33:30.219Z,108.80
2023-02-13T03:37:04.946Z,115.72
2023-02-13T03:39:53.989Z,112.43
2023-02-13T03:42:23.853Z,107.40
2023-02-13T03:45:20.928Z,107.88
2023-02-13T03:47:55.388Z,100.13
2023-02-13T03:50:27.899Z,102.32
2023-02-13T03:53:00.523Z,98.60
2023-02-13T03:58:45.936Z,102.70
2023-02-13T04:01:17.080Z,91.57
2023-02-13T04:04:32.126Z,92.00
2023-02-13T04:07:32.444Z,88.78
2023-02-13T04:10:12.722Z,98.43
2023-02-13T04:12:43.715Z,88.28
2023-02-13T04:15:22.052Z,86.78
2023-02-13T04:17:58.798Z,92.38
2023-02-13T04:20:32.622Z,85.20
2023-02-13T04:23:06.719Z,90.57
2023-02-13T04:25:35.309Z,86.97
2023-02-13T04:28:03.746Z,90.78
2023-02-13T04:30:31.149Z,89.03
2023-02-13T04:32:59.356Z,80.93
2023-02-13T04:35:28.333Z,80.68
2023-02-13T04:37:56.862Z,76.70
2023-02-13T04:40:25.304Z,77.20
2023-02-13T04:42:52.274Z,79.60
2023-02-13T04:45:20.705Z,79.78
2023-02-13T04:47:56.652Z,79.30
2023-02-13T04:50:24.883Z,73.25
2023-02-13T04:53:00.732Z,66.38
2023-02-13T04:55:28.480Z,70.45
2023-02-13T04:57:57.020Z,73.57
2023-02-13T05:00:26.634Z,68.18
2023-02-13T05:03:04.724Z,67.13
2023-02-13T05:05:35.737Z,69.28
2023-02-13T05:08:03.560Z,67.30
2023-02-13T05:10:34.898Z,66.53
2023-02-13T05:13:03.827Z,64.32
2023-02-13T05:15:32.006Z,68.75
2023-02-13T05:18:00.390Z,68.45
2023-02-13T05:20:28.118Z,62.92
2023-02-13T05:23:13.820Z,68.97
2023-02-13T05:25:42.916Z,61.47
2023-02-13T05:28:29.429Z,67.68
2023-02-13T05:30:58.209Z,69.75
2023-02-13T05:33:25.748Z,62.67
2023-02-13T05:35:54.382Z,61.00
2023-02-13T05:38:23.644Z,62.08
2023-02-13T05:40:50.697Z,62.05
2023-02-13T05:43:19.935Z,64.70
2023-02-13T05:45:48.301Z,58.00
2023-02-13T05:48:15.255Z,55.65
2023-02-13T05:50:42.137Z,63.95
2023-02-13T05:53:09.580Z,59.55
2023-02-13T05:55:36.673Z,64.00
2023-02-13T05:58:03.537Z,58.80
2023-02-13T06:00:32.423Z,54.92
2023-02-13T06:02:59.316Z,54.90
2023-02-13T06:05:26.313Z,60.03
2023-02-13T06:07:57.410Z,60.60
2023-02-13T06:14:52.286Z,52.88
2023-02-13T06:17:19.282Z,61.35
2023-02-13T06:19:47.578Z,55.63
2023-02-13T06:22:15.616Z,57.92
2023-02-13T06:24:42.787Z,54.83
2023-02-13T06:27:25.112Z,54.28
2023-02-13T06:30:01.763Z,56.38
2023-02-13T06:32:28.667Z,52.72
2023-02-13T06:34:55.764Z,53.58
2023-02-13T06:37:24.281Z,55.28
2023-02-13T06:39:51.498Z,51.42
2023-02-13T06:42:18.970Z,50.97
2023-02-13T06:44:46.989Z,51.08
2023-02-13T06:47:20.105Z,58.75
2023-02-13T06:49:48.126Z,50.58
2023-02-13T06:52:15.162Z,58.13
2023-02-13T06:54:47.693Z,54.20
2023-02-13T06:57:16.518Z,54.30
2023-02-13T06:59:44.083Z,55.13
2023-02-13T07:02:16.480Z,55.88
2023-02-13T07:04:43.394Z,53.70
2023-02-13T07:07:10.342Z,51.53
2023-02-13T07:09:38.472Z,52.20
2023-02-13T07:12:05.813Z,68.35
2023-02-13T07:14:35.212Z,58.00
2023-02-13T07:17:02.207Z,53.92
2023-02-13T07:19:30.664Z,51.47
2023-02-13T07:21:58.792Z,51.08
2023-02-13T07:24:26.239Z,50.65
2023-02-13T07:26:54.325Z,49.33
2023-02-13T07:29:21.306Z,46.97
2023-02-13T07:31:48.203Z,48.63
2023-02-13T07:34:15.285Z,50.30
2023-02-13T07:36:42.266Z,51.33
2023-02-13T07:39:09.730Z,52.28
2023-02-13T07:41:40.444Z,55.35
2023-02-13T07:44:08.047Z,64.47
2023-02-13T07:46:36.463Z,48.67
2023-02-13T07:49:03.886Z,51.00
2023-02-13T07:51:31.907Z,52.65
2023-02-13T07:54:01.381Z,49.50
2023-02-13T07:56:30.377Z,48.97
2023-02-13T07:58:57.292Z,49.08
2023-02-13T08:01:24.310Z,49.60
2023-02-13T08:03:53.534Z,54.85
2023-02-13T08:06:22.857Z,48.10
2023-02-13T08:09:09.828Z,49.00
2023-02-13T08:11:55.365Z,46.08
2023-02-13T08:14:24.377Z,45.60
2023-02-13T08:16:55.587Z,51.35
2023-02-13T08:19:23.652Z,47.47
2023-02-13T08:21:54.603Z,52.38
2023-02-13T08:24:21.888Z,46.25
2023-02-13T08:26:50.879Z,58.53
2023-02-13T08:29:18.884Z,68.63
2023-02-13T08:31:47.921Z,73.30
2023-02-13T08:34:15.918Z,95.80
2023-02-13T08:36:48.039Z,88.03
2023-02-13T08:39:15.009Z,70.80
2023-02-13T08:41:43.573Z,54.15
2023-02-13T08:44:12.061Z,67.88
2023-02-13T08:46:40.121Z,45.97
2023-02-13T08:49:09.517Z,56.65
2023-02-13T08:51:37.616Z,49.05
2023-02-13T08:54:06.824Z,55.70
2023-02-13T08:56:35.851Z,47.28
2023-02-13T08:59:05.196Z,46.92
2023-02-13T09:01:33.524Z,47.95
2023-02-13T09:04:00.847Z,42.88
2023-02-13T09:06:30.657Z,46.63
2023-02-13T09:08:57.815Z,44.17
2023-02-13T09:11:30.546Z,46.33
2023-02-13T09:13:57.785Z,47.50
2023-02-13T09:16:24.724Z,50.90
2023-02-13T09:18:52.546Z,42.10
2023-02-13T09:21:23.730Z,43.40
2023-02-13T09:23:55.419Z,46.83
2023-02-13T09:26:24.741Z,40.72
2023-02-13T09:28:52.942Z,41.60
2023-02-13T09:31:21.571Z,43.10
2023-02-13T09:33:50.373Z,46.53
2023-02-13T09:36:20.845Z,41.03
2023-02-13T09:38:52.021Z,43.53
2023-02-13T09:41:23.931Z,40.85
2023-02-13T09:44:04.669Z,44.97
2023-02-13T09:46:39.482Z,41.67
2023-02-13T09:49:23.474Z,42.55
2023-02-13T09:51:56.572Z,41.25
2023-02-13T09:54:25.806Z,38.47
2023-02-13T09:57:03.197Z,46.10
2023-02-13T09:59:58.273Z,40.42
2023-02-13T10:02:25.560Z,36.55
2023-02-13T10:05:07.226Z,40.92
2023-02-13T10:07:49.777Z,37.17
2023-02-13T10:10:58.814Z,38.55
2023-02-13T10:13:41.555Z,35.55
2023-02-13T10:16:42.224Z,32.95
2023-02-13T10:19:27.730Z,33.55
2023-02-13T10:22:09.532Z,35.75
2023-02-13T10:24:56.011Z,32.55
2023-02-13T10:27:46.901Z,34.30
2023-02-13T10:30:55.140Z,33.28
2023-02-13T10:33:30.248Z,31.38
2023-02-13T10:36:20.983Z,34.38
2023-02-13T10:39:22.172Z,34.85
2023-02-13T10:41:53.826Z,33.75
2023-02-13T10:44:31.119Z,28.45
2023-02-13T10:47:12.397Z,26.60
2023-02-13T10:49:54.011Z,25.83
2023-02-13T10:53:00.410Z,23.77
2023-02-13T10:55:54.339Z,24.13
2023-02-13T10:58:27.374Z,23.42
2023-02-13T11:00:54.679Z,24.50
2023-02-13T11:03:30.863Z,21.65
2023-02-13T11:06:02.918Z,23.92
2023-02-13T11:08:43.769Z,22.30
2023-02-13T11:11:31.615Z,21.27
2023-02-13T11:14:17.535Z,20.10
2023-02-13T11:17:01.729Z,23.20
2023-02-13T11:19:50.513Z,21.30
2023-02-13T11:22:33.540Z,20.00
2023-02-13T11:25:05.073Z,19.55
2023-02-13T11:27:42.331Z,19.07
2023-02-13T11:30:40.150Z,18.80
2023-02-13T11:33:23.502Z,21.80
2023-02-13T11:36:09.709Z,21.88
2023-02-13T11:38:39.000Z,21.30
2023-02-13T11:41:14.208Z,21.35
2023-02-13T11:43:54.887Z,21.95
2023-02-13T11:46:23.318Z,20.95
2023-02-13T11:48:59.895Z,22.05
2023-02-13T11:51:40.769Z,17.73
2023-02-13T11:54:29.728Z,20.35
2023-02-13T11:57:06.794Z,49.92
2023-02-13T11:59:41.503Z,20.52
2023-02-13T12:02:30.940Z,17.73
2023-02-13T12:05:27.121Z,25.83
2023-02-13T12:08:01.660Z,18.00
2023-02-13T12:10:31.983Z,18.13
2023-02-13T12:13:09.486Z,20.65
2023-02-13T12:15:37.518Z,19.40
2023-02-13T12:18:21.349Z,19.33
2023-02-13T12:20:54.124Z,20.38
2023-02-13T12:23:43.311Z,19.83
2023-02-13T12:26:48.704Z,26.52
2023-02-13T12:29:35.013Z,18.08
2023-02-13T12:32:22.892Z,25.25
2023-02-13T12:35:09.000Z,18.77
2023-02-13T12:37:47.112Z,17.38
2023-02-13T12:40:36.774Z,18.92
2023-02-13T12:43:37.792Z,18.92
2023-02-13T12:46:30.014Z,28.80
2023-02-13T12:49:27.000Z,19.15
2023-02-13T12:52:15.357Z,21.92
2023-02-13T12:54:52.417Z,23.30
2023-02-13T12:57:39.345Z,19.52
2023-02-13T13:00:46.126Z,25.75
2023-02-13T13:03:54.328Z,21.27
2023-02-13T13:06:50.289Z,21.20
2023-02-13T13:12:51.843Z,19.85
2023-02-13T13:15:40.826Z,19.02
2023-02-13T13:18:49.471Z,19.98
2023-02-13T13:21:34.946Z,25.10
2023-02-13T13:24:35.315Z,20.52
2023-02-13T13:27:04.981Z,18.85
2023-02-13T13:29:54.728Z,20.02
2023-02-13T13:32:23.036Z,19.00
2023-02-13T13:34:52.048Z,24.58
2023-02-13T13:38:09.569Z,26.05
2023-02-13T13:41:13.318Z,24.83
2023-02-13T13:44:06.505Z,24.17
2023-02-13T13:46:57.012Z,22.40
2023-02-13T13:50:03.064Z,24.55
2023-02-13T13:52:37.592Z,19.75
2023-02-13T13:55:07.260Z,24.52
2023-02-13T13:57:41.528Z,25.90
2023-02-13T14:00:14.528Z,26.15
2023-02-13T14:03:13.573Z,27.35
2023-02-13T14:06:10.884Z,24.60
2023-02-13T14:08:48.488Z,26.33
2023-02-13T14:11:53.741Z,26.20
2023-02-13T14:14:28.814Z,25.83
2023-02-13T14:17:18.612Z,23.58
2023-02-13T14:19:54.237Z,24.10
2023-02-13T14:22:38.541Z,22.38
2023-02-13T14:25:23.303Z,21.08
2023-02-13T14:27:59.836Z,21.33
2023-02-13T14:30:34.623Z,22.25
2023-02-13T14:33:08.380Z,23.83
2023-02-13T14:36:09.380Z,20.80
2023-02-13T14:38:39.780Z,18.08
2023-02-13T14:46:32.427Z,24.40
2023-02-13T14:49:28.616Z,20.88
2023-02-13T14:52:06.393Z,20.30
2023-02-13T14:54:45.692Z,21.33
2023-02-13T14:57:37.699Z,16.83
2023-02-13T15:00:32.022Z,19.23
2023-02-13T15:03:06.604Z,21.58
2023-02-13T15:05:35.166Z,18.13
2023-02-13T15:08:14.373Z,23.00
2023-02-13T15:10:57.107Z,19.20
2023-02-13T15:13:37.937Z,17.25
2023-02-13T15:16:12.871Z,17.77
2023-02-13T15:18:52.760Z,16.88
2023-02-13T15:21:22.161Z,17.35
2023-02-13T15:23:57.303Z,18.88
2023-02-13T15:26:28.603Z,21.45
2023-02-13T15:29:25.869Z,18.65
2023-02-13T15:31:58.814Z,19.73
2023-02-13T15:34:35.765Z,20.05
2023-02-13T15:37:06.314Z,20.70
2023-02-13T15:39:33.626Z,20.48
2023-02-13T15:42:05.257Z,22.70
2023-02-13T15:45:00.592Z,17.65
2023-02-13T15:47:44.981Z,19.55
2023-02-13T15:50:51.758Z,17.40
2023-02-13T15:53:28.728Z,19.25
2023-02-13T15:56:00.559Z,20.15
2023-02-13T15:58:53.042Z,17.48
2023-02-13T16:01:23.952Z,18.88
2023-02-13T16:04:19.882Z,17.85
2023-02-13T16:06:51.468Z,15.95
2023-02-13T16:09:34.081Z,21.00
2023-02-13T16:12:17.840Z,17.25
2023-02-13T16:15:13.134Z,16.98
2023-02-13T16:17:52.728Z,17.85
2023-02-13T16:20:31.059Z,17.08
2023-02-13T16:23:21.175Z,20.67
2023-02-13T16:25:51.081Z,18.50
2023-02-13T16:28:25.993Z,16.25
2023-02-13T16:31:05.203Z,16.88
2023-02-13T16:34:01.239Z,19.80
2023-02-13T16:36:34.735Z,20.23
2023-02-13T16:39:18.416Z,16.30
2023-02-13T16:41:48.028Z,20.05
2023-02-13T16:44:25.946Z,17.98
2023-02-13T16:47:07.069Z,19.30
2023-02-13T16:49:36.358Z,21.23
2023-02-13T16:52:26.951Z,18.38
2023-02-13T16:55:00.509Z,21.38
2023-02-13T16:57:35.350Z,20.10
2023-02-13T17:00:28.017Z,21.05
2023-02-13T17:03:11.834Z,24.05
2023-02-13T17:05:40.031Z,21.77
2023-02-13T17:08:08.015Z,22.13
2023-02-13T17:10:38.654Z,24.00
2023-02-13T17:13:22.469Z,22.60
2023-02-13T17:15:49.409Z,23.67
2023-02-13T17:18:19.148Z,23.92
2023-02-13T17:23:32.095Z,37.97
2023-02-13T17:26:00.182Z,37.13
2023-02-13T17:28:30.282Z,29.95
2023-02-13T17:30:59.545Z,25.20
2023-02-13T17:33:31.776Z,28.58
2023-02-13T17:35:58.832Z,37.40
2023-02-13T17:38:27.097Z,33.28
2023-02-13T17:40:54.135Z,28.35
2023-02-13T17:43:21.652Z,25.80
2023-02-13T17:45:52.174Z,27.05
2023-02-13T17:48:20.618Z,27.00
2023-02-13T17:50:52.607Z,33.95
2023-02-13T17:53:30.682Z,27.63
2023-02-13T17:56:01.552Z,25.98
2023-02-13T17:58:28.802Z,27.02
2023-02-13T18:00:56.320Z,29.05
2023-02-13T18:03:24.061Z,28.55
2023-02-13T18:05:55.595Z,25.35
2023-02-13T18:08:23.171Z,27.58
2023-02-13T18:10:52.211Z,26.23
2023-02-13T18:13:20.142Z,26.08
2023-02-13T18:15:49.419Z,28.20
2023-02-13T18:18:17.622Z,24.75
2023-02-13T18:20:46.448Z,30.13
2023-02-13T18:23:14.471Z,24.00
2023-02-13T18:25:41.483Z,28.02
2023-02-13T18:28:08.463Z,29.65
2023-02-13T18:30:37.516Z,29.08
2023-02-13T18:33:05.095Z,29.65
2023-02-13T18:35:33.461Z,32.92
2023-02-13T18:38:03.712Z,32.20
2023-02-13T18:40:32.805Z,27.17
2023-02-13T18:43:02.816Z,34.65
2023-02-13T18:45:45.605Z,34.85
2023-02-13T18:48:17.892Z,35.80
2023-02-13T18:51:02.617Z,29.70
2023-02-13T18:53:48.720Z,36.35
2023-02-13T18:56:40.914Z,31.15
2023-02-13T18:59:20.128Z,30.67
2023-02-13T19:06:29.083Z,31.42
2023-02-13T19:09:06.173Z,29.52
2023-02-13T19:11:41.875Z,33.15
2023-02-13T19:14:14.072Z,33.17
2023-02-13T19:16:44.115Z,34.50
2023-02-13T19:19:16.259Z,30.80
2023-02-13T19:21:49.556Z,31.73
2023-02-13T19:24:16.945Z,35.33
2023-02-13T19:26:45.844Z,34.67
2023-02-13T19:29:13.399Z,37.00
2023-02-13T19:31:41.125Z,37.25
2023-02-13T19:34:09.514Z,41.30
2023-02-13T19:36:36.869Z,36.75
2023-02-13T19:39:06.798Z,37.28
2023-02-13T19:41:33.681Z,39.53
2023-02-13T19:44:03.064Z,39.63
2023-02-13T19:46:32.100Z,37.25
2023-02-13T19:49:01.876Z,36.67
2023-02-13T19:51:52.990Z,40.33
2023-02-13T19:54:24.992Z,38.63
2023-02-13T19:57:02.679Z,38.05
2023-02-13T19:59:35.655Z,37.92
2023-02-13T20:02:03.268Z,40.13
2023-02-13T20:04:32.330Z,40.40
2023-02-13T20:06:59.645Z,35.83
2023-02-13T20:09:27.870Z,35.90
2023-02-13T20:11:54.796Z,36.38
2023-02-13T20:14:22.337Z,40.50
2023-02-13T20:16:49.426Z,37.92
2023-02-13T20:19:20.356Z,43.50
2023-02-13T20:21:47.378Z,38.80
2023-02-13T20:24:14.584Z,35.90
2023-02-13T20:26:42.678Z,37.28
2023-02-13T20:29:10.905Z,40.63
2023-02-13T20:31:41.287Z,36.33
2023-02-13T20:34:09.476Z,38.95
2023-02-13T20:36:37.064Z,37.85
2023-02-13T20:39:05.976Z,39.95
2023-02-13T20:41:35.577Z,38.08
2023-02-13T20:44:05.748Z,34.63
2023-02-13T20:46:36.597Z,35.45
2023-02-13T20:49:05.137Z,37.60
2023-02-13T20:51:39.613Z,35.38
2023-02-13T20:54:06.618Z,41.00
2023-02-13T20:56:35.659Z,39.42
2023-02-13T20:59:05.291Z,43.80
2023-02-13T21:01:35.515Z,43.30
2023-02-13T21:04:33.452Z,42.50
2023-02-13T21:07:01.633Z,42.22
2023-02-13T21:09:32.265Z,47.58
2023-02-13T21:12:00.106Z,44.83
2023-02-13T21:14:27.505Z,45.72
2023-02-13T21:16:54.590Z,41.45
2023-02-13T21:19:22.837Z,39.65
2023-02-13T21:21:49.785Z,41.95
2023-02-13T21:24:19.828Z,40.03
2023-02-13T21:26:49.302Z,40.15
2023-02-13T21:29:17.776Z,41.70
2023-02-13T21:31:49.416Z,40.70
2023-02-13T21:34:17.875Z,35.63
2023-02-13T21:36:46.637Z,33.42
2023-02-13T21:39:14.766Z,41.13
2023-02-13T21:41:46.205Z,40.78
2023-02-13T21:44:14.916Z,41.80
2023-02-13T21:46:43.709Z,41.15
2023-02-13T21:49:15.136Z,42.58
2023-02-13T21:51:42.521Z,40.75
2023-02-13T21:54:11.779Z,39.50
2023-02-13T21:56:40.669Z,45.95
2023-02-13T21:59:09.020Z,46.10
2023-02-13T22:01:46.989Z,49.28
2023-02-13T22:04:14.681Z,50.55
2023-02-13T22:06:46.791Z,50.90
2023-02-13T22:09:16.234Z,47.95
2023-02-13T22:11:44.028Z,45.60
2023-02-13T22:14:17.237Z,48.42
2023-02-13T22:16:45.249Z,48.88
2023-02-13T22:19:16.541Z,51.85
2023-02-13T22:21:44.480Z,46.03
2023-02-13T22:24:12.489Z,52.28
2023-02-13T22:26:45.190Z,55.75
2023-02-13T22:29:16.150Z,52.22
2023-02-13T22:31:47.178Z,49.75
2023-02-13T22:34:16.067Z,50.28
2023-02-13T22:36:44.098Z,52.05
2023-02-13T22:39:15.438Z,51.08
2023-02-13T22:41:45.666Z,46.00
2023-02-13T22:44:12.658Z,52.58
2023-02-13T22:46:39.680Z,51.28
2023-02-13T22:49:15.048Z,53.80
2023-02-13T22:51:41.945Z,53.08
2023-02-13T22:54:10.791Z,56.75
2023-02-13T22:56:37.778Z,51.22
2023-02-13T22:59:04.569Z,55.85
2023-02-13T23:01:33.946Z,56.97
2023-02-13T23:04:00.872Z,60.65
2023-02-13T23:06:28.688Z,58.55
2023-02-13T23:08:56.103Z,53.25
2023-02-13T23:11:45.334Z,55.13
2023-02-13T23:14:15.030Z,59.13
2023-02-13T23:17:02.394Z,57.60
2023-02-13T23:19:33.201Z,53.63
2023-02-13T23:22:00.235Z,54.08
2023-02-13T23:24:28.490Z,56.85
2023-02-13T23:26:56.632Z,53.25
2023-02-13T23:29:24.861Z,50.63
2023-02-13T23:31:52.936Z,58.30
2023-02-13T23:34:24.969Z,54.88
2023-02-13T23:36:52.498Z,54.90
2023-02-13T23:39:20.260Z,54.13
2023-02-13T23:41:48.708Z,48.80
2023-02-13T23:44:16.562Z,55.90
2023-02-13T23:46:44.809Z,51.53
2023-02-13T23:49:19.546Z,53.05
2023-02-13T23:51:47.193Z,56.70
2023-02-13T23:54:21.040Z,54.15
2023-02-13T23:56:50.604Z,57.10
2023-02-13T23:59:19.082Z,52.78
